Time;durP1;ratioP1;P1;durP2;ratioP2;P2;SDS_P1;SDS_P2;PMS_P1;PMS_P2;Temp;Humidity;BMP_temperature;BMP_pressure;BME280_temperature;BME280_humidity;BME280_pressure;Samples;Min_cycle;Max_cycle;Signal;HPM_P1;HPM_P2
2022/03/31 00:00:41;;;;;;;4.28;3.03;;;;;;;;;;4998067;28;20030;-69
2022/03/31 00:03:09;;;;;;;4.60;3.35;;;;;;;;;;5002782;28;20026;-68
2022/03/31 00:05:36;;;;;;;6.80;3.53;;;;;;;;;;4996819;28;20030;-69
2022/03/31 00:08:06;;;;;;;4.78;2.90;;;;;;;;;;4997276;28;20061;-69
2022/03/31 00:10:39;;;;;;;4.90;2.97;;;;;;;;;;5000569;28;20890;-67
2022/03/31 00:13:06;;;;;;;6.05;3.25;;;;;;;;;;5008150;28;20034;-69
2022/03/31 00:15:33;;;;;;;5.78;3.13;;;;;;;;;;5005769;28;20065;-68
2022/03/31 00:18:00;;;;;;;7.18;3.22;;;;;;;;;;5002743;28;20089;-67
2022/03/31 00:20:27;;;;;;;5.35;3.00;;;;;;;;;;5003872;28;20088;-69
2022/03/31 00:22:53;;;;;;;4.97;3.28;;;;;;;;;;5004201;28;20022;-69
2022/03/31 00:25:20;;;;;;;4.05;3.25;;;;;;;;;;5003196;28;20076;-68
2022/03/31 00:27:46;;;;;;;3.75;3.10;;;;;;;;;;5001709;28;20034;-67
2022/03/31 00:30:13;;;;;;;5.70;3.22;;;;;;;;;;5003613;28;20030;-69
2022/03/31 00:32:39;;;;;;;5.03;3.58;;;;;;;;;;5000402;28;20057;-68
2022/03/31 00:35:06;;;;;;;7.38;3.20;;;;;;;;;;5008394;28;20033;-70
2022/03/31 00:37:32;;;;;;;4.05;2.80;;;;;;;;;;5000228;28;20050;-67
2022/03/31 00:39:59;;;;;;;4.85;2.85;;;;;;;;;;5002422;28;20113;-66
2022/03/31 00:42:25;;;;;;;4.45;2.72;;;;;;;;;;5006825;28;20034;-68
2022/03/31 00:44:52;;;;;;;2.90;2.47;;;;;;;;;;5002750;28;20030;-69
2022/03/31 00:47:18;;;;;;;3.88;2.50;;;;;;;;;;5003966;28;20165;-68
2022/03/31 00:49:44;;;;;;;3.28;2.72;;;;;;;;;;4999514;28;20084;-67
2022/03/31 00:52:11;;;;;;;2.85;2.30;;;;;;;;;;5002681;28;20084;-70
2022/03/31 00:54:38;;;;;;;5.30;2.20;;;;;;;;;;5003518;28;20408;-68
2022/03/31 00:57:06;;;;;;;6.40;2.60;;;;;;;;;;5000593;28;20030;-68
2022/03/31 00:59:32;;;;;;;4.50;2.40;;;;;;;;;;5001366;28;20022;-68
2022/03/31 01:01:59;;;;;;;3.47;2.13;;;;;;;;;;4996498;28;20108;-69
2022/03/31 01:04:26;;;;;;;4.18;2.42;;;;;;;;;;5006506;28;20020;-70
2022/03/31 01:06:52;;;;;;;4.80;2.72;;;;;;;;;;5001678;28;20062;-68
2022/03/31 01:09:18;;;;;;;5.00;2.20;;;;;;;;;;5001134;28;20738;-69
2022/03/31 01:11:47;;;;;;;5.10;2.10;;;;;;;;;;4999705;28;20029;-68
2022/03/31 01:14:14;;;;;;;5.95;2.47;;;;;;;;;;4997674;28;20023;-70
2022/03/31 01:16:40;;;;;;;2.35;1.90;;;;;;;;;;5001182;28;20069;-68
2022/03/31 01:19:07;;;;;;;8.32;2.10;;;;;;;;;;5002644;28;20026;-69
2022/03/31 01:21:38;;;;;;;4.78;2.17;;;;;;;;;;5002640;28;20105;-67
2022/03/31 01:24:06;;;;;;;5.00;2.22;;;;;;;;;;4999661;28;20026;-69
2022/03/31 01:26:33;;;;;;;3.95;2.50;;;;;;;;;;5003584;28;20101;-69
2022/03/31 01:28:59;;;;;;;4.68;2.00;;;;;;;;;;5000750;28;20057;-68
2022/03/31 01:31:26;;;;;;;3.05;2.42;;;;;;;;;;5012745;28;20034;-68
2022/03/31 01:33:53;;;;;;;5.43;1.92;;;;;;;;;;5005996;28;20037;-67
2022/03/31 01:36:19;;;;;;;4.47;1.92;;;;;;;;;;4998393;28;20061;-69
2022/03/31 01:38:46;;;;;;;3.72;2.10;;;;;;;;;;5007303;28;20033;-69
2022/03/31 01:41:12;;;;;;;1.90;1.80;;;;;;;;;;5006407;28;20049;-70
2022/03/31 01:43:38;;;;;;;2.20;1.60;;;;;;;;;;5005520;28;20403;-67
2022/03/31 01:46:07;;;;;;;3.33;2.17;;;;;;;;;;5008002;28;20098;-69
2022/03/31 01:48:33;;;;;;;3.20;2.10;;;;;;;;;;5001143;28;20480;-69
2022/03/31 01:50:59;;;;;;;2.13;1.80;;;;;;;;;;4998601;28;20045;-71
2022/03/31 01:53:26;;;;;;;3.20;1.92;;;;;;;;;;5000923;28;20034;-70
2022/03/31 01:55:52;;;;;;;2.20;1.90;;;;;;;;;;4998374;28;20510;-69
2022/03/31 01:58:18;;;;;;;5.60;1.98;;;;;;;;;;4995038;28;20489;-70
2022/03/31 02:00:44;;;;;;;3.88;2.03;;;;;;;;;;4996286;28;20034;-67
2022/03/31 02:03:10;;;;;;;4.03;2.25;;;;;;;;;;4999302;28;20046;-70
2022/03/31 02:05:36;;;;;;;3.05;2.00;;;;;;;;;;5003035;28;20041;-69
2022/03/31 02:08:03;;;;;;;3.00;1.88;;;;;;;;;;4996884;28;20538;-68
2022/03/31 02:10:29;;;;;;;3.42;2.10;;;;;;;;;;5001857;28;20026;-69
2022/03/31 02:12:55;;;;;;;1.88;1.67;;;;;;;;;;5004041;28;20049;-68
2022/03/31 02:15:25;;;;;;;2.67;1.73;;;;;;;;;;4997875;28;20451;-68
2022/03/31 02:17:54;;;;;;;3.70;1.95;;;;;;;;;;5003713;28;20033;-66
2022/03/31 02:20:20;;;;;;;2.70;2.42;;;;;;;;;;4998624;28;20022;-67
2022/03/31 02:22:46;;;;;;;6.22;2.30;;;;;;;;;;4996781;28;20069;-67
2022/03/31 02:25:12;;;;;;;2.55;2.20;;;;;;;;;;5001734;28;20141;-67
2022/03/31 02:27:38;;;;;;;2.47;1.90;;;;;;;;;;5001864;28;20014;-67
2022/03/31 02:30:08;;;;;;;4.03;2.00;;;;;;;;;;5005573;28;20026;-69
2022/03/31 02:32:35;;;;;;;3.85;1.80;;;;;;;;;;5007369;28;20101;-68
2022/03/31 02:35:02;;;;;;;2.42;1.77;;;;;;;;;;5008066;28;20033;-69
2022/03/31 02:37:28;;;;;;;2.50;2.30;;;;;;;;;;5004485;28;20030;-71
2022/03/31 02:39:54;;;;;;;2.90;2.20;;;;;;;;;;5007351;28;20030;-68
2022/03/31 02:42:20;;;;;;;3.08;2.33;;;;;;;;;;5006670;28;20057;-67
2022/03/31 02:44:46;;;;;;;5.00;2.38;;;;;;;;;;5006673;28;20057;-68
2022/03/31 02:47:12;;;;;;;4.30;2.55;;;;;;;;;;5006787;28;20082;-69
2022/03/31 02:49:39;;;;;;;3.33;2.50;;;;;;;;;;5010334;28;20061;-69
2022/03/31 02:52:05;;;;;;;4.35;2.60;;;;;;;;;;5008815;28;20134;-68
2022/03/31 02:57:16;;;;;;;7.13;2.35;;;;;;;;;;5003035;28;21270;-69
2022/03/31 02:59:42;;;;;;;2.92;2.38;;;;;;;;;;5007244;28;20057;-69
2022/03/31 03:02:08;;;;;;;4.57;2.72;;;;;;;;;;5007145;28;20068;-67
2022/03/31 03:04:34;;;;;;;5.25;2.40;;;;;;;;;;5006036;28;20049;-69
2022/03/31 03:07:00;;;;;;;4.70;2.10;;;;;;;;;;5007510;28;20038;-69
2022/03/31 03:09:27;;;;;;;2.92;2.30;;;;;;;;;;5007248;28;20662;-67
2022/03/31 03:11:53;;;;;;;2.58;2.25;;;;;;;;;;5003925;28;20041;-69
2022/03/31 03:14:19;;;;;;;3.70;2.35;;;;;;;;;;5002864;28;20535;-69
2022/03/31 03:16:45;;;;;;;6.47;2.45;;;;;;;;;;5006829;28;20088;-70
2022/03/31 03:19:12;;;;;;;2.92;2.30;;;;;;;;;;5007737;28;20057;-68
2022/03/31 03:21:38;;;;;;;3.00;2.28;;;;;;;;;;5005158;28;20022;-70
2022/03/31 03:24:05;;;;;;;3.90;2.28;;;;;;;;;;5006209;28;20027;-70
2022/03/31 03:26:31;;;;;;;2.00;1.70;;;;;;;;;;5006937;28;20109;-70
2022/03/31 03:28:57;;;;;;;3.45;2.15;;;;;;;;;;5007215;28;20291;-69
2022/03/31 03:31:23;;;;;;;3.47;2.10;;;;;;;;;;5007615;28;20053;-69
2022/03/31 03:33:49;;;;;;;2.85;2.00;;;;;;;;;;5009758;28;20113;-68
2022/03/31 03:36:18;;;;;;;2.55;2.00;;;;;;;;;;5009396;28;20030;-68
2022/03/31 03:38:45;;;;;;;2.45;2.10;;;;;;;;;;5009450;28;20080;-69
2022/03/31 03:41:12;;;;;;;3.20;2.40;;;;;;;;;;5009427;28;20030;-71
2022/03/31 03:43:42;;;;;;;4.07;2.20;;;;;;;;;;5010220;28;20532;-71
2022/03/31 03:46:08;;;;;;;5.57;2.05;;;;;;;;;;5012264;28;20026;-69
2022/03/31 03:48:34;;;;;;;7.75;2.22;;;;;;;;;;5007349;28;20026;-70
2022/03/31 03:51:00;;;;;;;6.85;2.47;;;;;;;;;;5005545;28;20088;-67
2022/03/31 03:53:26;;;;;;;3.67;2.38;;;;;;;;;;5009806;28;20026;-70
2022/03/31 03:55:53;;;;;;;6.38;2.28;;;;;;;;;;5008704;28;20040;-67
2022/03/31 03:58:19;;;;;;;3.45;1.92;;;;;;;;;;5009091;28;20502;-68
2022/03/31 04:00:45;;;;;;;5.63;2.40;;;;;;;;;;5001608;28;20042;-68
2022/03/31 04:03:11;;;;;;;2.28;1.83;;;;;;;;;;5006646;28;20029;-69
2022/03/31 04:05:38;;;;;;;2.65;2.10;;;;;;;;;;5007976;28;20072;-68
2022/03/31 04:08:04;;;;;;;2.40;2.08;;;;;;;;;;5012620;28;20105;-67
2022/03/31 04:10:30;;;;;;;4.53;2.05;;;;;;;;;;5009145;28;20109;-68
2022/03/31 04:12:56;;;;;;;3.20;2.38;;;;;;;;;;5006195;28;20476;-68
2022/03/31 04:15:23;;;;;;;2.47;1.80;;;;;;;;;;5002627;28;20410;-69
2022/03/31 04:17:49;;;;;;;2.15;1.95;;;;;;;;;;5009809;28;20432;-68
2022/03/31 04:20:15;;;;;;;4.32;2.22;;;;;;;;;;5005834;28;20156;-67
2022/03/31 04:22:42;;;;;;;4.10;2.13;;;;;;;;;;4999863;28;20058;-68
2022/03/31 04:25:08;;;;;;;2.85;2.00;;;;;;;;;;5000888;28;20464;-68
2022/03/31 04:27:35;;;;;;;3.85;2.10;;;;;;;;;;5004481;28;20052;-66
2022/03/31 04:30:06;;;;;;;2.97;1.95;;;;;;;;;;5002510;28;20030;-68
2022/03/31 04:32:32;;;;;;;2.80;2.13;;;;;;;;;;5003069;28;20121;-68
2022/03/31 04:34:58;;;;;;;3.45;2.15;;;;;;;;;;5001230;28;20524;-69
2022/03/31 04:37:24;;;;;;;2.83;1.98;;;;;;;;;;5003559;28;20404;-67
2022/03/31 04:39:50;;;;;;;3.35;2.00;;;;;;;;;;5003754;28;20038;-69
2022/03/31 04:42:16;;;;;;;2.70;1.90;;;;;;;;;;5006616;28;20025;-68
2022/03/31 04:44:42;;;;;;;2.40;2.10;;;;;;;;;;5005622;28;20040;-68
2022/03/31 04:47:11;;;;;;;4.57;2.10;;;;;;;;;;5004465;28;20100;-66
2022/03/31 04:49:37;;;;;;;2.90;2.42;;;;;;;;;;5004609;28;20023;-69
2022/03/31 04:52:04;;;;;;;2.33;1.73;;;;;;;;;;4997465;28;20040;-66
2022/03/31 04:54:30;;;;;;;3.10;2.47;;;;;;;;;;4999264;28;20113;-67
2022/03/31 04:56:56;;;;;;;2.78;1.90;;;;;;;;;;4999278;28;20022;-69
2022/03/31 04:59:22;;;;;;;3.47;2.60;;;;;;;;;;4999061;28;20038;-70
2022/03/31 05:01:48;;;;;;;3.10;2.05;;;;;;;;;;5001501;28;20029;-70
2022/03/31 05:04:16;;;;;;;2.25;1.80;;;;;;;;;;5005521;28;20026;-67
2022/03/31 05:06:42;;;;;;;2.95;2.00;;;;;;;;;;5005459;28;20025;-68
2022/03/31 05:09:08;;;;;;;2.70;2.30;;;;;;;;;;5003006;28;20109;-68
2022/03/31 05:11:34;;;;;;;9.70;2.42;;;;;;;;;;4999576;28;20038;-69
2022/03/31 05:14:00;;;;;;;3.35;1.83;;;;;;;;;;5000843;28;20034;-67
2022/03/31 05:16:26;;;;;;;2.47;2.28;;;;;;;;;;5005230;28;20058;-68
2022/03/31 05:18:52;;;;;;;2.00;1.80;;;;;;;;;;5000951;28;20029;-69
2022/03/31 05:21:18;;;;;;;2.20;2.00;;;;;;;;;;4997125;28;20045;-68
2022/03/31 05:23:44;;;;;;;5.90;2.42;;;;;;;;;;5002149;28;20036;-68
2022/03/31 05:26:10;;;;;;;4.45;2.05;;;;;;;;;;5010586;28;20032;-69
2022/03/31 05:28:37;;;;;;;2.35;1.80;;;;;;;;;;5006288;28;20058;-68
2022/03/31 05:31:03;;;;;;;2.65;2.45;;;;;;;;;;4999638;28;20468;-69
2022/03/31 05:33:30;;;;;;;3.55;1.98;;;;;;;;;;5012515;28;20041;-68
2022/03/31 05:35:58;;;;;;;5.00;2.35;;;;;;;;;;5007778;28;20033;-68
2022/03/31 05:38:24;;;;;;;4.95;2.10;;;;;;;;;;5013076;28;20025;-70
2022/03/31 05:40:50;;;;;;;1.83;1.73;;;;;;;;;;5008258;28;20115;-67
2022/03/31 05:43:16;;;;;;;3.33;2.30;;;;;;;;;;4997593;28;20034;-68
2022/03/31 05:45:42;;;;;;;2.80;2.00;;;;;;;;;;5006048;28;20472;-71
2022/03/31 05:48:08;;;;;;;4.72;1.90;;;;;;;;;;5009878;28;20025;-70
2022/03/31 05:50:35;;;;;;;7.03;2.45;;;;;;;;;;5007760;28;20022;-69
2022/03/31 05:53:01;;;;;;;2.08;1.77;;;;;;;;;;5005611;28;20045;-67
2022/03/31 05:55:28;;;;;;;10.30;2.20;;;;;;;;;;5001722;28;20431;-69
2022/03/31 05:57:54;;;;;;;2.38;1.90;;;;;;;;;;4999157;28;20069;-69
2022/03/31 06:00:21;;;;;;;3.50;1.90;;;;;;;;;;4998293;28;20036;-68
2022/03/31 06:02:47;;;;;;;2.67;2.17;;;;;;;;;;5005414;28;20029;-66
2022/03/31 06:05:14;;;;;;;2.75;1.90;;;;;;;;;;5006133;28;20408;-68
2022/03/31 06:07:40;;;;;;;2.05;1.85;;;;;;;;;;5010120;28;20030;-68
2022/03/31 06:10:07;;;;;;;4.70;2.00;;;;;;;;;;5006850;28;20152;-68
2022/03/31 06:12:34;;;;;;;3.50;2.15;;;;;;;;;;5009542;28;20036;-69
2022/03/31 06:15:00;;;;;;;2.13;1.92;;;;;;;;;;5006983;28;20155;-66
2022/03/31 06:17:26;;;;;;;3.83;2.00;;;;;;;;;;5009848;28;20500;-70
2022/03/31 06:19:52;;;;;;;5.70;2.00;;;;;;;;;;5008059;28;20070;-68
2022/03/31 06:22:19;;;;;;;2.42;2.08;;;;;;;;;;5008800;28;20051;-69
2022/03/31 06:24:45;;;;;;;4.88;2.13;;;;;;;;;;5001190;28;20104;-67
2022/03/31 06:27:11;;;;;;;2.67;2.03;;;;;;;;;;5002909;28;20026;-69
2022/03/31 06:29:38;;;;;;;4.22;2.08;;;;;;;;;;5008276;28;20079;-66
2022/03/31 06:32:06;;;;;;;4.50;2.42;;;;;;;;;;5008981;28;20053;-67
2022/03/31 06:34:32;;;;;;;6.80;1.92;;;;;;;;;;5006265;28;20085;-69
2022/03/31 06:36:58;;;;;;;3.40;2.08;;;;;;;;;;5009989;28;20795;-71
2022/03/31 06:39:25;;;;;;;4.70;2.20;;;;;;;;;;5011545;28;20088;-71
2022/03/31 06:41:51;;;;;;;2.03;1.65;;;;;;;;;;5011896;28;20032;-70
2022/03/31 06:44:19;;;;;;;2.20;1.95;;;;;;;;;;5010822;28;20023;-71
2022/03/31 06:46:46;;;;;;;2.17;1.90;;;;;;;;;;5005476;28;20018;-70
2022/03/31 06:49:12;;;;;;;3.92;1.80;;;;;;;;;;5004281;28;20876;-69
2022/03/31 06:51:38;;;;;;;4.85;2.00;;;;;;;;;;5007360;28;20499;-70
2022/03/31 06:54:04;;;;;;;4.38;1.80;;;;;;;;;;5007567;28;20085;-70
2022/03/31 06:56:31;;;;;;;5.25;2.25;;;;;;;;;;4999958;28;20033;-70
2022/03/31 06:58:58;;;;;;;3.85;2.42;;;;;;;;;;5009725;28;20063;-71
2022/03/31 07:01:25;;;;;;;6.32;2.13;;;;;;;;;;5005194;28;20022;-69
2022/03/31 07:03:51;;;;;;;6.25;2.25;;;;;;;;;;5007353;28;20026;-71
2022/03/31 07:06:18;;;;;;;2.05;1.88;;;;;;;;;;5010900;28;20021;-71
2022/03/31 07:08:44;;;;;;;3.13;1.85;;;;;;;;;;5008017;28;20018;-71
2022/03/31 07:11:10;;;;;;;2.45;2.25;;;;;;;;;;5002914;28;20034;-71
2022/03/31 07:13:37;;;;;;;5.38;2.28;;;;;;;;;;5006873;28;20022;-71
2022/03/31 07:16:03;;;;;;;6.88;2.13;;;;;;;;;;5006326;28;20045;-70
2022/03/31 07:18:29;;;;;;;4.75;2.10;;;;;;;;;;5006439;28;20085;-70
2022/03/31 07:20:58;;;;;;;5.93;2.05;;;;;;;;;;5000041;28;20034;-71
2022/03/31 07:23:25;;;;;;;4.00;1.85;;;;;;;;;;5020255;28;20025;-70
2022/03/31 07:25:56;;;;;;;4.50;2.13;;;;;;;;;;5002271;28;20050;-70
2022/03/31 07:28:23;;;;;;;3.88;2.25;;;;;;;;;;4998050;28;20034;-70
2022/03/31 07:30:51;;;;;;;3.88;2.65;;;;;;;;;;5000649;28;20038;-70
2022/03/31 07:33:18;;;;;;;5.65;1.63;;;;;;;;;;5004009;28;20076;-71
2022/03/31 07:35:47;;;;;;;2.25;1.90;;;;;;;;;;5003931;28;20105;-72
2022/03/31 07:38:13;;;;;;;2.97;2.03;;;;;;;;;;5008186;28;20022;-70
2022/03/31 07:40:40;;;;;;;3.92;1.80;;;;;;;;;;5001049;28;20038;-69
2022/03/31 07:43:06;;;;;;;3.05;1.98;;;;;;;;;;5003036;28;20034;-70
2022/03/31 07:45:34;;;;;;;7.10;2.00;;;;;;;;;;5008324;28;20483;-70
2022/03/31 07:48:00;;;;;;;2.58;1.50;;;;;;;;;;5005027;28;20070;-70
2022/03/31 07:50:26;;;;;;;4.15;1.83;;;;;;;;;;5000710;28;20095;-70
2022/03/31 07:52:52;;;;;;;5.03;1.80;;;;;;;;;;4999871;28;20029;-70
2022/03/31 07:55:19;;;;;;;4.38;1.75;;;;;;;;;;5016573;28;20419;-70
2022/03/31 07:57:46;;;;;;;4.80;2.00;;;;;;;;;;4999784;28;20073;-71
2022/03/31 08:00:13;;;;;;;5.57;2.33;;;;;;;;;;4995833;28;20038;-70
2022/03/31 08:02:43;;;;;;;4.25;1.88;;;;;;;;;;4997915;28;20041;-70
2022/03/31 08:05:09;;;;;;;3.45;1.95;;;;;;;;;;5010389;28;20408;-71
2022/03/31 08:07:39;;;;;;;5.45;2.33;;;;;;;;;;5001468;28;20033;-71
2022/03/31 08:10:05;;;;;;;5.07;2.00;;;;;;;;;;5000897;28;20098;-70
2022/03/31 08:12:33;;;;;;;2.85;1.98;;;;;;;;;;5006044;28;20040;-71
2022/03/31 08:14:59;;;;;;;3.15;1.92;;;;;;;;;;5004955;28;20049;-71
2022/03/31 08:17:27;;;;;;;3.10;1.83;;;;;;;;;;5006332;28;20447;-71
2022/03/31 08:19:53;;;;;;;5.68;2.17;;;;;;;;;;5003691;28;20524;-71
2022/03/31 08:22:19;;;;;;;3.85;2.10;;;;;;;;;;5002372;28;20038;-71
2022/03/31 08:24:45;;;;;;;5.55;2.00;;;;;;;;;;5007912;28;20030;-70
2022/03/31 08:27:12;;;;;;;7.35;2.17;;;;;;;;;;5002610;28;20053;-72
2022/03/31 08:29:39;;;;;;;3.05;1.98;;;;;;;;;;4998084;28;20022;-71
2022/03/31 08:32:06;;;;;;;2.00;1.80;;;;;;;;;;5009667;28;20076;-71
2022/03/31 08:34:32;;;;;;;2.55;1.90;;;;;;;;;;5008231;28;20029;-70
2022/03/31 08:36:59;;;;;;;3.53;1.90;;;;;;;;;;5007562;28;20058;-70
2022/03/31 08:39:25;;;;;;;2.78;1.90;;;;;;;;;;5000884;28;20489;-71
2022/03/31 08:41:51;;;;;;;3.97;1.95;;;;;;;;;;5008062;28;20034;-72
2022/03/31 08:44:19;;;;;;;5.18;2.30;;;;;;;;;;5000392;28;20037;-71
2022/03/31 08:46:45;;;;;;;2.53;2.00;;;;;;;;;;5005374;28;20104;-70
2022/03/31 08:49:12;;;;;;;3.70;2.03;;;;;;;;;;5000877;28;20442;-71
2022/03/31 08:51:39;;;;;;;3.85;2.10;;;;;;;;;;5010424;28;20029;-71
2022/03/31 08:54:05;;;;;;;4.85;2.30;;;;;;;;;;5006064;28;20143;-71
2022/03/31 08:56:32;;;;;;;6.82;1.88;;;;;;;;;;5005448;28;20037;-70
2022/03/31 08:58:58;;;;;;;3.67;2.65;;;;;;;;;;5002647;28;20092;-72
2022/03/31 09:01:24;;;;;;;5.57;2.30;;;;;;;;;;5009043;28;20087;-71
2022/03/31 09:03:50;;;;;;;4.10;1.98;;;;;;;;;;5006267;28;20054;-71
2022/03/31 09:06:23;;;;;;;3.35;2.00;;;;;;;;;;5009100;28;20396;-72
2022/03/31 09:08:55;;;;;;;6.00;2.05;;;;;;;;;;5013667;28;20026;-72
2022/03/31 09:11:27;;;;;;;2.92;1.60;;;;;;;;;;5004464;28;20076;-72
2022/03/31 09:13:57;;;;;;;4.60;1.77;;;;;;;;;;5009629;28;20030;-72
2022/03/31 09:16:30;;;;;;;4.18;2.10;;;;;;;;;;5007701;28;20052;-73
2022/03/31 09:19:16;;;;;;;3.55;1.80;;;;;;;;;;5010645;28;20061;-72
2022/03/31 09:21:57;;;;;;;2.20;2.00;;;;;;;;;;5003725;28;20053;-71
2022/03/31 09:24:23;;;;;;;4.68;1.85;;;;;;;;;;5004406;28;20523;-71
2022/03/31 09:26:51;;;;;;;2.75;1.90;;;;;;;;;;5005045;28;20563;-71
2022/03/31 09:29:19;;;;;;;7.00;2.42;;;;;;;;;;5005395;28;20097;-71
2022/03/31 09:31:46;;;;;;;6.53;2.25;;;;;;;;;;5000175;28;20047;-72
2022/03/31 09:34:13;;;;;;;5.80;2.00;;;;;;;;;;4997843;28;20026;-71
2022/03/31 09:36:42;;;;;;;5.43;2.00;;;;;;;;;;5004554;28;20269;-71
2022/03/31 09:39:13;;;;;;;2.55;1.83;;;;;;;;;;4995957;28;20054;-72
2022/03/31 09:41:43;;;;;;;6.40;2.13;;;;;;;;;;4994806;28;20073;-71
2022/03/31 09:44:16;;;;;;;1.67;1.58;;;;;;;;;;5003267;28;20058;-72
2022/03/31 09:46:43;;;;;;;3.17;1.90;;;;;;;;;;5002104;28;20038;-72
2022/03/31 09:49:15;;;;;;;4.50;1.75;;;;;;;;;;5007425;28;20096;-72
2022/03/31 09:51:42;;;;;;;2.22;1.67;;;;;;;;;;5005896;28;20091;-72
2022/03/31 09:54:09;;;;;;;4.93;1.65;;;;;;;;;;5001141;28;20037;-71
2022/03/31 09:56:38;;;;;;;2.63;1.70;;;;;;;;;;5005832;28;20038;-72
2022/03/31 09:59:05;;;;;;;2.63;1.50;;;;;;;;;;5000512;28;20147;-72
2022/03/31 10:01:31;;;;;;;3.25;1.73;;;;;;;;;;5002872;28;20038;-72
2022/03/31 10:03:58;;;;;;;2.47;1.90;;;;;;;;;;5004032;28;20030;-71
2022/03/31 10:06:26;;;;;;;3.97;1.60;;;;;;;;;;5003782;28;20065;-72
2022/03/31 10:08:53;;;;;;;2.95;2.00;;;;;;;;;;5000177;28;20034;-71
2022/03/31 10:11:20;;;;;;;5.20;1.85;;;;;;;;;;5004113;28;20076;-71
2022/03/31 10:13:53;;;;;;;3.00;2.42;;;;;;;;;;4998034;28;20391;-72
2022/03/31 10:16:22;;;;;;;4.55;1.75;;;;;;;;;;5004663;28;20065;-72
2022/03/31 10:18:49;;;;;;;2.70;1.73;;;;;;;;;;5005061;28;20108;-71
2022/03/31 10:21:26;;;;;;;2.03;1.83;;;;;;;;;;5003895;28;20052;-72
2022/03/31 10:26:36;;;;;;;2.65;1.70;;;;;;;;;;5000941;28;20053;-72
2022/03/31 10:29:10;;;;;;;4.65;1.80;;;;;;;;;;5006256;28;20034;-71
2022/03/31 10:31:42;;;;;;;3.90;1.63;;;;;;;;;;5000265;28;20032;-71
2022/03/31 10:34:09;;;;;;;4.78;2.75;;;;;;;;;;5003752;28;20037;-72
2022/03/31 10:36:37;;;;;;;2.13;1.70;;;;;;;;;;5005572;28;20038;-73
2022/03/31 10:39:05;;;;;;;3.38;2.22;;;;;;;;;;5005022;28;20030;-72
2022/03/31 10:41:38;;;;;;;4.82;1.80;;;;;;;;;;5006819;28;20027;-72
2022/03/31 10:44:24;;;;;;;1.85;1.63;;;;;;;;;;5001619;28;20134;-72
2022/03/31 10:47:20;;;;;;;2.20;2.00;;;;;;;;;;5005218;28;20026;-72
2022/03/31 10:49:55;;;;;;;3.10;1.83;;;;;;;;;;5005672;28;20069;-71
2022/03/31 10:52:23;;;;;;;;;;;;;;;;;;5018675;28;20523;-72
2022/03/31 10:54:52;;;;;;;4.18;1.70;;;;;;;;;;5007319;28;19909;-72
2022/03/31 10:57:19;;;;;;;3.03;1.88;;;;;;;;;;5013898;28;20018;-72
2022/03/31 10:59:46;;;;;;;1.77;1.58;;;;;;;;;;5010454;28;20033;-72
2022/03/31 11:02:20;;;;;;;2.13;1.70;;;;;;;;;;5006306;28;20109;-72
2022/03/31 11:04:47;;;;;;;3.53;1.60;;;;;;;;;;5009968;28;20113;-72
2022/03/31 11:07:14;;;;;;;3.20;1.83;;;;;;;;;;5009662;28;20056;-71
2022/03/31 11:09:42;;;;;;;3.15;1.90;;;;;;;;;;5013186;28;20036;-71
2022/03/31 11:12:09;;;;;;;3.75;1.70;;;;;;;;;;5006960;28;20025;-71
2022/03/31 11:14:35;;;;;;;1.90;1.63;;;;;;;;;;5001146;28;20432;-72
2022/03/31 11:17:01;;;;;;;1.90;1.70;;;;;;;;;;5007605;28;20050;-72
2022/03/31 11:19:37;;;;;;;1.83;1.70;;;;;;;;;;5004848;28;20026;-72
2022/03/31 11:22:03;;;;;;;2.83;1.83;;;;;;;;;;5005743;28;20105;-71
2022/03/31 11:24:29;;;;;;;5.82;2.00;;;;;;;;;;5006214;28;20054;-71
2022/03/31 11:26:55;;;;;;;3.22;1.60;;;;;;;;;;5010809;28;20101;-71
2022/03/31 11:29:26;;;;;;;2.97;1.95;;;;;;;;;;5009258;28;20036;-72
2022/03/31 11:31:53;;;;;;;4.68;1.80;;;;;;;;;;5009428;28;20028;-72
2022/03/31 11:34:22;;;;;;;3.30;2.22;;;;;;;;;;5021573;28;20026;-72
2022/03/31 11:36:48;;;;;;;5.00;2.08;;;;;;;;;;4999685;28;20149;-72
2022/03/31 11:39:14;;;;;;;2.30;1.70;;;;;;;;;;5006860;28;20108;-72
2022/03/31 11:41:41;;;;;;;2.00;1.70;;;;;;;;;;4999753;28;20041;-72
2022/03/31 11:44:07;;;;;;;5.43;1.98;;;;;;;;;;5003484;28;20026;-71
2022/03/31 11:46:43;;;;;;;2.45;1.88;;;;;;;;;;5006033;28;20551;-73
2022/03/31 11:49:25;;;;;;;3.97;2.15;;;;;;;;;;5003116;28;20029;-72
2022/03/31 11:51:53;;;;;;;4.57;2.03;;;;;;;;;;5004636;28;20042;-72
2022/03/31 11:54:20;;;;;;;4.85;2.10;;;;;;;;;;5002810;28;20057;-71
2022/03/31 11:56:46;;;;;;;5.03;1.90;;;;;;;;;;5000177;28;20053;-71
2022/03/31 11:59:14;;;;;;;3.80;1.75;;;;;;;;;;5005494;28;20480;-72
2022/03/31 12:01:43;;;;;;;4.07;2.22;;;;;;;;;;5004088;28;20037;-72
2022/03/31 12:04:22;;;;;;;4.28;1.88;;;;;;;;;;5001687;28;20037;-71
2022/03/31 12:06:49;;;;;;;3.65;2.10;;;;;;;;;;5005683;28;20029;-72
2022/03/31 12:09:15;;;;;;;4.60;2.47;;;;;;;;;;5011105;28;20045;-73
2022/03/31 12:11:42;;;;;;;3.17;1.98;;;;;;;;;;5011236;28;20037;-72
2022/03/31 12:14:12;;;;;;;3.72;2.30;;;;;;;;;;5014027;28;20141;-71
2022/03/31 12:16:44;;;;;;;4.80;2.05;;;;;;;;;;5002033;28;20625;-71
2022/03/31 12:19:11;;;;;;;2.67;2.17;;;;;;;;;;5008722;28;20053;-70
2022/03/31 12:21:45;;;;;;;3.05;1.90;;;;;;;;;;5008740;28;20048;-72
2022/03/31 12:24:13;;;;;;;2.55;2.05;;;;;;;;;;5003756;28;20049;-72
2022/03/31 12:26:40;;;;;;;3.10;1.77;;;;;;;;;;5003204;28;20025;-72
2022/03/31 12:29:16;;;;;;;2.20;2.00;;;;;;;;;;5002130;28;20030;-72
2022/03/31 12:31:43;;;;;;;5.60;2.05;;;;;;;;;;5003908;28;20057;-72
2022/03/31 12:34:11;;;;;;;5.20;2.30;;;;;;;;;;5004558;28;20026;-71
2022/03/31 12:36:37;;;;;;;3.67;2.35;;;;;;;;;;5004385;28;20044;-72
2022/03/31 12:39:05;;;;;;;3.13;2.40;;;;;;;;;;5005105;28;20383;-72
2022/03/31 12:41:36;;;;;;;5.53;2.78;;;;;;;;;;5005404;28;20033;-72
2022/03/31 12:44:02;;;;;;;3.17;2.30;;;;;;;;;;5004487;28;20025;-72
2022/03/31 12:46:30;;;;;;;4.78;2.55;;;;;;;;;;5003201;28;20032;-73
2022/03/31 12:49:08;;;;;;;3.13;2.35;;;;;;;;;;5004587;28;20021;-72
2022/03/31 12:51:52;;;;;;;4.25;2.30;;;;;;;;;;5004792;28;20033;-73
2022/03/31 12:54:24;;;;;;;3.63;2.30;;;;;;;;;;5004384;28;20041;-74
2022/03/31 12:56:52;;;;;;;2.67;2.47;;;;;;;;;;5003601;28;20083;-73
2022/03/31 12:59:20;;;;;;;3.78;2.13;;;;;;;;;;5004156;28;20029;-72
2022/03/31 13:01:59;;;;;;;3.35;2.13;;;;;;;;;;5002457;28;20030;-71
2022/03/31 13:04:26;;;;;;;2.92;1.98;;;;;;;;;;5004549;28;20025;-73
2022/03/31 13:06:52;;;;;;;2.83;2.20;;;;;;;;;;5013789;28;20072;-73
2022/03/31 13:09:18;;;;;;;5.07;2.33;;;;;;;;;;5012564;28;20025;-72
2022/03/31 13:11:44;;;;;;;2.47;2.20;;;;;;;;;;5005491;28;20032;-73
2022/03/31 13:14:11;;;;;;;3.78;2.55;;;;;;;;;;5012494;28;20042;-73
2022/03/31 13:16:37;;;;;;;3.63;2.28;;;;;;;;;;5010310;28;20684;-73
2022/03/31 13:19:04;;;;;;;4.55;2.70;;;;;;;;;;5010442;28;20046;-74
2022/03/31 13:21:32;;;;;;;2.33;2.00;;;;;;;;;;5012407;28;20034;-72
2022/03/31 13:23:58;;;;;;;6.07;2.63;;;;;;;;;;5006591;28;20022;-74
2022/03/31 13:26:24;;;;;;;4.40;2.45;;;;;;;;;;5013448;28;20663;-73
2022/03/31 13:28:50;;;;;;;5.22;2.83;;;;;;;;;;5012238;28;20026;-72
2022/03/31 13:31:16;;;;;;;4.38;2.25;;;;;;;;;;5008014;28;20025;-71
2022/03/31 13:33:42;;;;;;;3.03;2.25;;;;;;;;;;5011685;28;20034;-72
2022/03/31 13:36:08;;;;;;;4.88;2.20;;;;;;;;;;5011402;28;20031;-72
2022/03/31 13:38:36;;;;;;;3.75;3.15;;;;;;;;;;5010363;28;20088;-74
2022/03/31 13:41:02;;;;;;;4.00;2.25;;;;;;;;;;5001665;28;20056;-73
2022/03/31 13:43:28;;;;;;;4.10;2.20;;;;;;;;;;4999067;28;20026;-72
2022/03/31 13:45:54;;;;;;;3.58;2.00;;;;;;;;;;5004191;28;20026;-73
2022/03/31 13:48:20;;;;;;;4.70;2.08;;;;;;;;;;5004727;28;20033;-73
2022/03/31 13:50:47;;;;;;;3.38;1.80;;;;;;;;;;5005775;28;20026;-72
2022/03/31 13:55:58;;;;;;;3.15;2.00;;;;;;;;;;5003509;28;20069;-73
2022/03/31 14:01:10;;;;;;;4.10;2.00;;;;;;;;;;5003746;28;20045;-73
2022/03/31 14:03:37;;;;;;;2.10;1.85;;;;;;;;;;5003977;28;20037;-73
2022/03/31 14:06:13;;;;;;;3.20;1.83;;;;;;;;;;5001803;28;20026;-73
2022/03/31 14:08:39;;;;;;;5.30;1.95;;;;;;;;;;5005459;28;20045;-73
2022/03/31 14:11:07;;;;;;;4.18;1.88;;;;;;;;;;5006390;28;20057;-72
2022/03/31 14:13:33;;;;;;;2.35;1.80;;;;;;;;;;5006730;28;20147;-76
2022/03/31 14:16:03;;;;;;;2.40;1.80;;;;;;;;;;5005866;28;20049;-73
2022/03/31 14:18:30;;;;;;;3.15;1.92;;;;;;;;;;5004958;28;20033;-73
2022/03/31 14:20:57;;;;;;;2.13;1.70;;;;;;;;;;5002615;28;20060;-73
2022/03/31 14:23:23;;;;;;;3.03;1.90;;;;;;;;;;5004837;28;20034;-72
2022/03/31 14:25:50;;;;;;;2.80;1.90;;;;;;;;;;5021788;28;20049;-73
2022/03/31 14:28:16;;;;;;;4.35;1.90;;;;;;;;;;5009403;28;21578;-73
2022/03/31 14:30:45;;;;;;;5.45;1.80;;;;;;;;;;5007796;28;20033;-72
2022/03/31 14:33:11;;;;;;;4.60;2.05;;;;;;;;;;5006192;28;20058;-72
2022/03/31 14:35:38;;;;;;;2.58;2.33;;;;;;;;;;5007442;28;20081;-72
2022/03/31 14:38:04;;;;;;;3.42;1.80;;;;;;;;;;5007463;28;20065;-72
2022/03/31 14:40:31;;;;;;;2.45;2.03;;;;;;;;;;5006578;28;20520;-73
2022/03/31 14:42:57;;;;;;;2.03;1.83;;;;;;;;;;5002606;28;20029;-73
2022/03/31 14:45:23;;;;;;;5.00;2.20;;;;;;;;;;5004438;28;20053;-73
2022/03/31 14:47:50;;;;;;;2.25;1.83;;;;;;;;;;5007086;28;20739;-73
2022/03/31 14:50:16;;;;;;;2.80;1.95;;;;;;;;;;5012939;28;20045;-72
2022/03/31 14:52:42;;;;;;;3.17;1.88;;;;;;;;;;5009579;28;20061;-74
2022/03/31 14:55:08;;;;;;;1.65;1.55;;;;;;;;;;5010166;28;20029;-74